Latest Weather Observations for Emerald

IDQ60801

Issued at 5:02 pm EST Tuesday 30 August 2016 (issued every 30 minutes, with the page automatically refreshed every 10 minutes)

About weather observations | Map of weather stations | Latest weather observations for QLD | Other Formats
Station Details ID: 035264 Name: EMERALD AIRPORT Lat: -23.57 Lon: 148.18 Height: 189.4 m
Data from the previous 72 hours. | See also: Recent months at Emerald
Date/Time
EST
Temp
°C
App
Temp
°C
Dew
Point
°C
Rel
Hum
%
Delta-T
°C
Wind Press
QNH
hPa
Press
MSL
hPa
Rain since
9am
mm
Dir  Spd
km/h
Gust
km/h
Spd
kts
Gust
kts
30/05:00pm 25.0 22.0 11.9 44 7.5 NE 19 24 10 13 1021.5 - 0.0
30/04:30pm 25.5 22.5 12.0 43 7.8 NE 19 26 10 14 1021.3 - 0.0
30/04:00pm 25.9 23.3 12.0 42 8.0 NE 17 26 9 14 1021.4 - 0.0
30/03:30pm 26.0 23.3 11.7 41 8.2 NE 17 26 9 14 1021.5 - 0.0
30/03:00pm 25.9 22.9 12.0 42 8.0 NE 19 30 10 16 1021.7 1021.4 0.0
30/02:30pm 25.8 22.7 12.3 43 7.8 E 20 28 11 15 1022.0 - 0.0
30/02:00pm 25.7 22.3 12.5 44 7.7 NNE 22 32 12 17 1022.4 - 0.0
30/01:30pm 24.7 21.1 12.0 45 7.3 NNE 22 35 12 19 1022.7 - 0.0
30/01:00pm 24.6 21.0 12.9 48 6.8 NNE 24 37 13 20 1023.1 - 0.0
30/12:30pm 24.7 22.0 13.6 50 6.6 NE 20 30 11 16 1023.6 - 0.0
30/12:00pm 23.4 19.2 12.4 50 6.3 NE 26 37 14 20 1024.2 1023.9 0.0
30/11:30am 23.3 19.2 12.6 51 6.2 NE 26 37 14 20 1024.7 - 0.0
30/11:00am 23.0 19.3 12.6 52 6.0 NE 24 37 13 20 1025.5 - 0.0
30/10:30am 22.3 18.7 13.1 56 5.3 ENE 24 33 13 18 1025.9 - 0.0
30/10:00am 22.0 18.3 13.9 60 4.7 NE 26 39 14 21 1026.1 - 0.0
30/09:30am 20.7 17.6 14.4 67 3.7 NE 24 30 13 16 1026.1 - 0.0
30/09:00am 19.5 17.6 14.3 72 3.0 ENE 17 26 9 14 1026.4 1026.1 0.0
30/08:30am 17.0 16.0 14.5 85 1.4 E 13 17 7 9 1026.1 - 0.0
30/08:00am 14.8 14.6 13.7 93 0.6 SSE 7 9 4 5 1026.0 - 0.0
30/07:30am 13.2 12.4 12.9 98 0.2 SSW 9 11 5 6 1025.7 - 0.0
30/07:00am 11.5 10.2 11.2 98 0.2 S 9 13 5 7 1025.1 - 0.0
30/06:30am 11.2 10.2 10.9 98 0.2 SE 7 9 4 5 1024.5 - 0.0
30/06:00am 10.8 9.3 10.5 98 0.2 E 9 9 5 5 1023.9 1023.6 0.0
30/05:30am 11.2 10.2 10.9 98 0.2 E 7 7 4 4 1023.6 - 0.0
30/05:00am 11.3 10.5 11.0 98 0.2 E 6 7 3 4 1023.3 - 0.0
30/04:30am 11.2 10.2 10.9 98 0.2 E 7 9 4 5 1023.0 - 0.0
30/04:00am 11.4 10.1 11.1 98 0.2 E 9 11 5 6 1022.5 - 0.0
30/03:30am 11.3 9.8 10.7 96 0.3 E 9 11 5 6 1022.7 - 0.0
30/03:00am 11.6 9.8 11.0 96 0.3 E 11 13 6 7 1022.7 1022.4 0.0
30/02:30am 11.7 9.9 10.9 95 0.4 E 11 13 6 7 1022.9 - 0.0
30/02:00am 12.0 10.2 10.7 92 0.7 ENE 11 13 6 7 1023.1 - 0.0
30/01:30am 12.2 10.3 10.6 90 0.8 E 11 13 6 7 1023.4 - 0.0
30/01:00am 12.9 10.7 10.8 87 1.1 E 13 13 7 7 1023.7 - 0.0
30/12:30am 13.9 11.4 11.2 84 1.4 E 15 17 8 9 1023.8 - 0.0
30/12:00am 14.0 11.6 11.3 84 1.4 E 15 15 8 8 1024.0 1023.7 0.0
 
Date/Time
EST
Temp
°C
App
Temp
°C
Dew
Point
°C
Rel
Hum
%
Delta-T
°C
Wind Press
QNH
hPa
Press
MSL
hPa
Rain since
9am
mm
Dir  Spd
km/h
Gust
km/h
Spd
kts
Gust
kts
29/11:30pm 13.8 11.7 11.0 83 1.5 E 13 15 7 8 1024.1 - 0.0
29/11:00pm 14.1 12.1 10.3 78 2.0 ENE 11 13 6 7 1023.8 - 0.0
29/10:30pm 15.3 13.0 10.5 73 2.6 ENE 13 15 7 8 1023.8 - 0.0
29/10:00pm 17.0 14.4 10.6 66 3.4 ENE 15 20 8 11 1023.8 - 0.0
29/09:30pm 17.3 14.8 10.9 66 3.5 ENE 15 20 8 11 1023.6 - 0.0
29/09:00pm 15.7 13.5 10.9 73 2.6 E 13 15 7 8 1023.3 1023.0 0.0
29/08:30pm 17.4 15.6 10.8 65 3.6 NE 11 15 6 8 1022.9 - 0.0
29/08:00pm 18.2 16.8 10.8 62 4.0 NE 9 11 5 6 1022.7 - 0.0
29/07:30pm 18.6 16.8 10.7 60 4.3 NE 11 15 6 8 1022.3 - 0.0
29/07:00pm 19.3 17.1 10.8 58 4.7 ENE 13 17 7 9 1022.0 - 0.0
29/06:30pm 20.0 17.5 11.0 56 5.0 NE 15 17 8 9 1021.7 - 0.0
29/06:00pm 21.3 18.7 10.8 51 5.8 NE 15 19 8 10 1021.6 1021.3 0.0
29/05:30pm 22.9 19.5 10.7 46 6.8 NE 19 24 10 13 1021.4 - 0.0
29/05:00pm 23.9 20.5 10.6 43 7.4 NE 19 26 10 14 1021.4 - 0.0
29/04:30pm 24.5 21.0 10.8 42 7.7 ENE 20 28 11 15 1021.1 - 0.0
29/04:00pm 24.6 21.1 10.1 40 8.1 NE 19 30 10 16 1021.1 - 0.0
29/03:30pm 24.7 21.7 10.6 41 7.9 ENE 17 28 9 15 1021.2 - 0.0
29/03:00pm 24.5 20.3 9.6 39 8.2 ENE 22 32 12 17 1021.4 1021.1 0.0
29/02:30pm 24.5 20.1 10.4 41 7.9 NE 24 32 13 17 1021.6 - 0.0
29/02:00pm 24.5 20.7 11.1 43 7.6 NNE 22 32 12 17 1021.9 - 0.0
29/01:30pm 24.3 20.4 10.9 43 7.5 NNE 22 35 12 19 1022.4 - 0.0
29/01:00pm 23.4 19.8 10.5 44 7.2 NE 20 33 11 18 1023.0 - 0.0
29/12:30pm 22.8 18.8 10.6 46 6.8 ENE 22 33 12 18 1023.4 - 0.0
29/12:00pm 22.4 18.5 10.9 48 6.4 ENE 22 33 12 18 1023.9 1023.6 0.0
29/11:30am 21.4 17.9 10.9 51 5.8 NE 20 33 11 18 1024.4 - 0.0
29/11:00am 20.5 16.2 10.6 53 5.4 NE 24 32 13 17 1025.3 - 0.0
29/10:30am 20.1 16.2 10.8 55 5.1 ENE 22 30 12 16 1025.7 - 0.0
29/10:00am 19.3 16.8 11.1 59 4.5 ENE 15 20 8 11 1025.9 - 0.0
29/09:30am 18.1 16.2 10.5 61 4.1 ENE 11 19 6 10 1025.9 - 0.0
29/09:00am 17.0 14.9 9.7 62 3.8 ESE 11 15 6 8 1025.8 1025.5 0.0
29/08:30am 15.1 13.2 9.2 68 3.1 SSE 9 13 5 7 1025.8 - 0.0
29/08:00am 12.5 10.3 8.0 74 2.2 SSE 9 11 5 6 1025.4 - 0.0
29/07:30am 10.5 8.9 7.9 84 1.3 S 6 7 3 4 1025.1 - 0.0
29/07:00am 8.9 8.3 7.2 89 0.8 CALM 0 0 0 0 1024.5 - 0.0
29/06:30am 8.3 7.5 6.4 88 0.9 CALM 0 0 0 0 1023.9 - 0.0
29/06:00am 8.8 8.1 6.8 87 0.9 CALM 0 0 0 0 1023.4 1023.1 0.0
29/05:30am 7.9 7.0 6.0 88 0.9 CALM 0 0 0 0 1022.8 - 0.0
29/05:00am 8.1 7.2 5.9 86 1.0 CALM 0 0 0 0 1022.5 - 0.0
29/04:30am 8.3 6.0 5.9 85 1.1 E 7 11 4 6 1022.2 - 0.0
29/04:00am 8.9 6.3 6.2 83 1.3 E 9 9 5 5 1022.2 - 0.0
29/03:30am 9.2 7.0 6.1 81 1.4 E 7 9 4 5 1022.2 - 0.0
29/03:00am 9.0 7.0 6.1 82 1.3 E 6 7 3 4 1022.5 1022.2 0.0
29/02:30am 9.3 7.0 5.9 79 1.6 E 7 9 4 5 1022.5 - 0.0
29/02:00am 9.6 6.6 6.0 78 1.7 E 11 11 6 6 1022.7 - 0.0
29/01:30am 9.7 6.7 5.9 77 1.8 E 11 13 6 7 1022.6 - 0.0
29/01:00am 10.3 8.0 5.7 73 2.1 E 7 9 4 5 1022.6 - 0.0
29/12:30am 10.5 8.3 5.5 71 2.3 E 6 7 3 4 1022.5 - 0.0
29/12:00am 10.7 7.2 5.5 70 2.4 ESE 13 15 7 8 1022.2 1021.9 0.0
 
Date/Time
EST
Temp
°C
App
Temp
°C
Dew
Point
°C
Rel
Hum
%
Delta-T
°C
Wind Press
QNH
hPa
Press
MSL
hPa
Rain since
9am
mm
Dir  Spd
km/h
Gust
km/h
Spd
kts
Gust
kts
28/11:30pm 11.1 8.0 5.6 69 2.6 ESE 11 13 6 7 1022.2 - 0.0
28/11:00pm 11.7 9.4 5.6 66 2.9 SE 7 9 4 5 1022.5 - 0.0
28/10:30pm 12.7 10.3 5.1 60 3.6 E 7 7 4 4 1022.4 - 0.0
28/10:00pm 13.0 10.6 5.2 59 3.7 E 7 9 4 5 1022.4 - 0.0
28/09:30pm 13.4 11.1 5.8 60 3.6 E 7 9 4 5 1022.4 - 0.0
28/09:00pm 13.7 11.4 5.6 58 3.8 ESE 7 9 4 5 1022.2 1021.9 0.0
28/08:30pm 14.2 11.9 5.6 56 4.1 E 7 7 4 4 1022.3 - 0.0
28/08:00pm 15.1 12.6 5.0 51 4.8 E 7 7 4 4 1022.2 - 0.0
28/07:30pm 15.7 13.4 4.7 48 5.2 NE 6 6 3 3 1022.0 - 0.0
28/07:00pm 16.9 14.4 4.6 44 5.9 NE 7 9 4 5 1021.8 - 0.0
28/06:30pm 18.2 15.0 2.9 36 7.1 NE 9 11 5 6 1021.3 - 0.0
28/06:00pm 18.8 15.1 2.6 34 7.5 NE 11 15 6 8 1021.0 1020.7 0.0
28/05:30pm 20.7 17.0 2.5 30 8.6 ENE 11 13 6 7 1021.1 - 0.0
28/05:00pm 21.9 17.9 2.6 28 9.2 ENE 13 20 7 11 1020.8 - 0.0
28/04:30pm 22.5 19.3 3.1 28 9.4 ENE 9 15 5 8 1020.7 - 0.0
28/04:00pm 22.5 19.5 4.1 30 9.1 E 9 13 5 7 1020.4 - 0.0
28/03:30pm 22.3 18.6 4.4 31 8.9 NE 13 19 7 10 1020.5 - 0.0
28/03:00pm 21.8 17.9 3.5 30 8.8 ENE 13 19 7 10 1020.7 1020.4 0.0
28/02:30pm 21.7 18.7 3.9 31 8.7 NE 9 19 5 10 1021.1 - 0.0
28/02:00pm 21.4 17.9 3.6 31 8.6 E 11 17 6 9 1021.6 - 0.0
28/01:30pm 21.0 17.9 3.7 32 8.4 ESE 9 15 5 8 1022.3 - 0.0
28/01:00pm 20.3 16.9 3.9 34 7.9 ESE 11 20 6 11 1022.6 - 0.0
28/12:30pm 19.6 15.5 2.5 32 8.0 NE 13 20 7 11 1023.0 - 0.0
28/12:00pm 19.2 15.1 2.1 32 7.9 E 13 20 7 11 1023.5 1023.2 0.0
28/11:30am 18.4 14.5 3.5 37 7.0 E 13 24 7 13 1024.2 - 0.0
28/11:00am 17.6 14.1 3.5 39 6.6 ENE 11 19 6 10 1024.7 - 0.0
28/10:30am 17.6 14.6 3.9 40 6.5 E 9 19 5 10 1025.4 - 0.0
28/10:00am 16.6 12.4 4.0 43 5.9 SE 15 20 8 11 1025.7 - 0.0
28/09:30am 15.4 10.8 3.5 45 5.5 ESE 17 24 9 13 1025.7 - 0.0
28/09:00am 14.3 9.7 3.7 49 4.8 SE 17 22 9 12 1025.6 1025.3 0.0
28/08:30am 13.0 9.4 3.1 51 4.4 SE 11 15 6 8 1025.6 - 0.0
28/08:00am 11.3 7.8 3.3 58 3.6 SSE 11 15 6 8 1025.2 - 0.0
28/07:30am 9.5 5.2 3.5 66 2.6 SSE 15 20 8 11 1024.7 - 0.0
28/07:00am 7.4 3.4 3.1 74 1.8 SSE 13 20 7 11 1024.3 - 0.0
28/06:30am 6.1 2.8 2.7 79 1.4 SSE 9 13 5 7 1024.0 - 0.0
28/06:00am 6.4 2.8 2.7 77 1.5 SSE 11 17 6 9 1023.6 1023.3 0.0
28/05:30am 6.6 2.2 2.7 76 1.6 SSE 15 20 8 11 1022.9 - 0.0
28/05:00am 6.7 1.9 2.6 75 1.7 SSE 17 20 9 11 1022.6 - 0.0
28/04:30am 7.0 2.6 2.5 73 1.9 SSE 15 20 8 11 1022.6 - 0.0
28/04:00am 7.4 3.0 2.5 71 2.1 SSE 15 20 8 11 1022.5 - 0.0
28/03:30am 7.8 2.6 2.5 69 2.2 SSE 19 20 10 11 1022.6 - 0.0
28/03:00am 8.1 3.3 2.6 68 2.3 SSE 17 20 9 11 1022.6 1022.3 0.0
28/02:30am 8.6 3.4 2.6 66 2.6 SSE 19 22 10 12 1022.8 - 0.0
28/02:00am 8.8 4.0 2.8 66 2.6 SSE 17 20 9 11 1023.0 - 0.0
28/01:30am 9.2 4.1 2.8 64 2.8 SSE 19 22 10 12 1023.2 - 0.0
28/01:00am 9.7 4.6 2.8 62 3.0 SSE 19 22 10 12 1023.2 - 0.0
28/12:30am 9.7 5.0 3.0 63 2.9 SSE 17 22 9 12 1023.4 - 0.0
28/12:00am 10.1 6.1 2.9 61 3.1 SSE 13 15 7 8 1023.5 1023.2 0.0
 
Date/Time
EST
Temp
°C
App
Temp
°C
Dew
Point
°C
Rel
Hum
%
Delta-T
°C
Wind Press
QNH
hPa
Press
MSL
hPa
Rain since
9am
mm
Dir  Spd
km/h
Gust
km/h
Spd
kts
Gust
kts
27/11:30pm 10.6 6.2 2.7 58 3.4 SSE 15 19 8 10 1023.6 - 0.0
27/11:00pm 9.8 7.0 3.1 63 2.9 SSE 7 11 4 6 1023.6 - 0.0
27/10:30pm 10.2 7.1 3.7 64 2.9 SSE 9 13 5 7 1023.4 - 0.0
27/10:00pm 10.3 7.2 3.6 63 3.0 S 9 11 5 6 1023.5 - 0.0
27/09:30pm 11.4 8.9 4.6 63 3.1 SSW 7 9 4 5 1023.4 - 0.0
27/09:00pm 11.3 8.6 3.6 59 3.4 S 7 9 4 5 1023.1 1022.8 0.0
27/08:30pm 11.0 9.0 4.2 63 3.1 SSE 4 7 2 4 1022.7 - 0.0
27/08:00pm 13.1 11.9 4.5 56 4.0 CALM 0 0 0 0 1022.6 - 0.0
27/07:30pm 12.9 11.4 3.0 51 4.4 CALM 0 0 0 0 1022.3 - 0.0
27/07:00pm 14.5 11.2 2.4 44 5.4 SE 9 9 5 5 1021.9 - 0.0
27/06:30pm 14.4 10.7 2.6 45 5.3 ESE 11 11 6 6 1021.3 - 0.0
27/06:00pm 16.4 13.3 1.3 36 6.7 SE 7 9 4 5 1021.3 1021.0 0.0
27/05:30pm 18.0 14.0 0.6 31 7.7 SSE 11 17 6 9 1020.9 - 0.0

Other Formats:

Comma delimited format used in spreadsheet applications
http://www.bom.gov.au/fwo/IDQ60801/IDQ60801.94363.axf

JavaScript Object Notation format (JSON) in row-major order
http://www.bom.gov.au/fwo/IDQ60801/IDQ60801.94363.json